Time;durP1;ratioP1;P1;durP2;ratioP2;P2;SDS_P1;SDS_P2;PMS_P1;PMS_P2;Temp;Humidity;BMP_temperature;BMP_pressure;BME280_temperature;BME280_humidity;BME280_pressure;Samples;Min_cycle;Max_cycle;Signal;HPM_P1;HPM_P2
2023/04/26 00:01:35;;;;;;;2.05;1.20;;;;;;;;;;5055574;28;20036;-82
2023/04/26 00:04:02;;;;;;;1.80;1.35;;;;;;;;;;5059671;28;20391;-81
2023/04/26 00:06:27;;;;;;;1.73;1.10;;;;;;;;;;5063567;28;20056;-81
2023/04/26 00:08:53;;;;;;;1.48;1.00;;;;;;;;;;5066878;28;20067;-81
2023/04/26 00:11:18;;;;;;;1.85;1.20;;;;;;;;;;5068829;28;20096;-81
2023/04/26 00:13:44;;;;;;;1.52;1.10;;;;;;;;;;5054683;28;20379;-81
2023/04/26 00:16:09;;;;;;;1.27;1.05;;;;;;;;;;5058559;28;20154;-81
2023/04/26 00:18:34;;;;;;;1.40;1.25;;;;;;;;;;5061057;28;20028;-82
2023/04/26 00:21:00;;;;;;;1.50;1.20;;;;;;;;;;5081907;28;20061;-81
2023/04/26 00:23:25;;;;;;;2.38;1.30;;;;;;;;;;5070152;28;20027;-81
2023/04/26 00:25:51;;;;;;;1.15;0.98;;;;;;;;;;5058342;28;20029;-80
2023/04/26 00:28:16;;;;;;;1.33;1.15;;;;;;;;;;5054467;28;20036;-80
2023/04/26 00:30:46;;;;;;;2.60;1.10;;;;;;;;;;5060646;28;20470;-81
2023/04/26 00:33:12;;;;;;;1.38;1.00;;;;;;;;;;5063856;28;20082;-82
2023/04/26 00:35:37;;;;;;;1.75;1.10;;;;;;;;;;5069484;28;20032;-81
2023/04/26 00:38:03;;;;;;;1.27;0.98;;;;;;;;;;5060407;28;20029;-82
2023/04/26 00:40:29;;;;;;;1.58;1.00;;;;;;;;;;5055324;28;20025;-81
2023/04/26 00:42:59;;;;;;;1.10;1.00;;;;;;;;;;5074839;28;20035;-81
2023/04/26 00:45:25;;;;;;;2.22;1.00;;;;;;;;;;5063818;28;20035;-80
2023/04/26 00:47:51;;;;;;;0.80;0.80;;;;;;;;;;5066830;28;20123;-81
2023/04/26 00:50:18;;;;;;;0.90;0.80;;;;;;;;;;5068849;28;20032;-81
2023/04/26 00:52:46;;;;;;;1.27;0.90;;;;;;;;;;5058339;28;20056;-81
2023/04/26 00:55:13;;;;;;;0.90;0.70;;;;;;;;;;5064094;28;20029;-81
2023/04/26 00:57:38;;;;;;;1.00;0.90;;;;;;;;;;5063951;28;20413;-81
2023/04/26 01:00:05;;;;;;;0.80;0.80;;;;;;;;;;5069685;28;20033;-81
2023/04/26 01:02:31;;;;;;;1.15;1.05;;;;;;;;;;5074671;28;20039;-79
2023/04/26 01:04:56;;;;;;;1.20;1.00;;;;;;;;;;5059154;28;20024;-81
2023/04/26 01:07:22;;;;;;;1.40;1.00;;;;;;;;;;5059023;28;20544;-81
2023/04/26 01:09:48;;;;;;;1.48;0.90;;;;;;;;;;5060590;28;20083;-81
2023/04/26 01:12:13;;;;;;;1.95;1.08;;;;;;;;;;5064521;28;20078;-81
2023/04/26 01:14:39;;;;;;;1.65;1.00;;;;;;;;;;5068919;28;20036;-81
2023/04/26 01:17:05;;;;;;;1.35;1.00;;;;;;;;;;5054300;28;20041;-81
2023/04/26 01:19:31;;;;;;;1.20;1.05;;;;;;;;;;5070521;28;20460;-81
2023/04/26 01:21:57;;;;;;;1.15;0.90;;;;;;;;;;5056698;28;20040;-81
2023/04/26 01:24:22;;;;;;;2.25;1.20;;;;;;;;;;5060805;28;20039;-81
2023/04/26 01:26:48;;;;;;;1.70;1.17;;;;;;;;;;5063589;28;20033;-81
2023/04/26 01:29:16;;;;;;;2.97;1.40;;;;;;;;;;5066712;28;20045;-81
2023/04/26 01:31:41;;;;;;;1.45;1.00;;;;;;;;;;5069224;28;20548;-81
2023/04/26 01:34:07;;;;;;;1.83;1.20;;;;;;;;;;5072758;28;20041;-81
2023/04/26 01:36:32;;;;;;;1.20;1.10;;;;;;;;;;5063541;28;20033;-81
2023/04/26 01:38:58;;;;;;;1.33;1.02;;;;;;;;;;5057692;28;20037;-81
2023/04/26 01:41:23;;;;;;;1.10;0.98;;;;;;;;;;5077374;28;20059;-81
2023/04/26 01:43:49;;;;;;;1.38;1.17;;;;;;;;;;5063019;28;20032;-81
2023/04/26 01:46:14;;;;;;;1.42;1.10;;;;;;;;;;5068041;28;20068;-81
2023/04/26 01:48:40;;;;;;;1.10;1.00;;;;;;;;;;5068694;28;20060;-81
2023/04/26 01:51:06;;;;;;;1.70;1.30;;;;;;;;;;5073067;28;20525;-82
2023/04/26 01:53:32;;;;;;;1.60;1.20;;;;;;;;;;5063303;28;20025;-81
2023/04/26 01:56:01;;;;;;;2.22;1.33;;;;;;;;;;5059404;28;20081;-81
2023/04/26 01:58:28;;;;;;;1.15;1.05;;;;;;;;;;5061116;28;20090;-81
2023/04/26 02:00:54;;;;;;;1.25;1.15;;;;;;;;;;5062742;28;20034;-81
2023/04/26 02:03:20;;;;;;;3.40;1.25;;;;;;;;;;5064506;28;20036;-81
2023/04/26 02:05:45;;;;;;;1.83;1.25;;;;;;;;;;5071144;28;20033;-82
2023/04/26 02:08:11;;;;;;;1.23;1.00;;;;;;;;;;5072261;28;20039;-81
2023/04/26 02:10:36;;;;;;;1.33;1.10;;;;;;;;;;5057839;28;20391;-81
2023/04/26 02:13:02;;;;;;;1.67;1.20;;;;;;;;;;5058486;28;20060;-81
2023/04/26 02:15:28;;;;;;;2.88;1.10;;;;;;;;;;5063079;28;20033;-81
2023/04/26 02:17:54;;;;;;;1.77;1.40;;;;;;;;;;5065219;28;20449;-81
2023/04/26 02:20:20;;;;;;;1.60;1.20;;;;;;;;;;5068689;28;20090;-81
2023/04/26 02:22:46;;;;;;;1.60;1.30;;;;;;;;;;5071555;28;20036;-81
2023/04/26 02:25:14;;;;;;;1.77;1.20;;;;;;;;;;5065436;28;20083;-81
2023/04/26 02:27:40;;;;;;;2.22;1.50;;;;;;;;;;5056959;28;20041;-81
2023/04/26 02:30:07;;;;;;;2.85;1.30;;;;;;;;;;5041769;28;20036;-81
2023/04/26 02:32:33;;;;;;;2.13;1.40;;;;;;;;;;5061266;28;20032;-81
2023/04/26 02:34:58;;;;;;;1.65;1.30;;;;;;;;;;5065072;28;20105;-81
2023/04/26 02:37:24;;;;;;;1.80;1.40;;;;;;;;;;5067828;28;20059;-82
2023/04/26 02:39:50;;;;;;;1.65;1.30;;;;;;;;;;5070396;28;20043;-81
2023/04/26 02:42:16;;;;;;;1.55;1.25;;;;;;;;;;5039720;28;20080;-81
2023/04/26 02:44:42;;;;;;;1.83;1.17;;;;;;;;;;5036463;28;20025;-81
2023/04/26 02:47:08;;;;;;;1.52;1.27;;;;;;;;;;5038800;28;20033;-81
2023/04/26 02:49:33;;;;;;;3.42;1.85;;;;;;;;;;5042591;28;20083;-81
2023/04/26 02:51:59;;;;;;;3.45;2.10;;;;;;;;;;5045327;28;20033;-81
2023/04/26 02:54:25;;;;;;;3.25;1.77;;;;;;;;;;5047377;28;20102;-81
2023/04/26 02:56:51;;;;;;;2.95;2.08;;;;;;;;;;5050826;28;20037;-81
2023/04/26 02:59:16;;;;;;;3.97;2.20;;;;;;;;;;5053229;28;20154;-81
2023/04/26 03:01:42;;;;;;;3.90;2.30;;;;;;;;;;5056345;28;20025;-81
2023/04/26 03:04:08;;;;;;;3.70;2.00;;;;;;;;;;5061496;28;20029;-81
2023/04/26 03:06:35;;;;;;;2.25;1.60;;;;;;;;;;5061525;28;20061;-81
2023/04/26 03:09:00;;;;;;;2.63;1.75;;;;;;;;;;5064893;28;20508;-81
2023/04/26 03:11:26;;;;;;;3.70;1.83;;;;;;;;;;5068045;28;20044;-81
2023/04/26 03:13:52;;;;;;;2.35;1.50;;;;;;;;;;5069523;28;20059;-81
2023/04/26 03:16:22;;;;;;;2.35;1.55;;;;;;;;;;5054254;28;20074;-81
2023/04/26 03:18:48;;;;;;;2.42;1.60;;;;;;;;;;5052063;28;20036;-81
2023/04/26 03:21:13;;;;;;;1.85;1.40;;;;;;;;;;5061522;28;20037;-81
2023/04/26 03:23:39;;;;;;;2.75;1.40;;;;;;;;;;5062700;28;20025;-81
2023/04/26 03:26:04;;;;;;;2.40;1.52;;;;;;;;;;5067908;28;20032;-81
2023/04/26 03:28:30;;;;;;;1.98;1.27;;;;;;;;;;5069069;28;20029;-81
2023/04/26 03:30:56;;;;;;;2.90;1.20;;;;;;;;;;5065573;28;20036;-81
2023/04/26 03:33:21;;;;;;;2.38;1.23;;;;;;;;;;5054375;28;20071;-81
2023/04/26 03:35:47;;;;;;;2.50;0.90;;;;;;;;;;5059015;28;20036;-81
2023/04/26 03:38:13;;;;;;;1.35;1.00;;;;;;;;;;5060195;28;20036;-81
2023/04/26 03:40:39;;;;;;;1.25;0.90;;;;;;;;;;5060243;28;20039;-81
2023/04/26 03:43:04;;;;;;;1.50;0.88;;;;;;;;;;5066597;28;20028;-81
2023/04/26 03:45:30;;;;;;;0.63;0.63;;;;;;;;;;5069095;28;20512;-81
2023/04/26 03:47:55;;;;;;;1.27;0.80;;;;;;;;;;5061292;28;20029;-81
2023/04/26 03:50:21;;;;;;;0.70;0.70;;;;;;;;;;5055117;28;20630;-81
2023/04/26 03:52:47;;;;;;;0.70;0.70;;;;;;;;;;5058032;28;20029;-81
2023/04/26 03:55:12;;;;;;;0.95;0.68;;;;;;;;;;5061040;28;20048;-81
2023/04/26 03:57:38;;;;;;;0.70;0.70;;;;;;;;;;5063190;28;20483;-81
2023/04/26 04:00:12;;;;;;;0.70;0.65;;;;;;;;;;5066746;28;20036;-81
2023/04/26 04:02:41;;;;;;;0.90;0.80;;;;;;;;;;5064071;28;20524;-81
2023/04/26 04:05:08;;;;;;;1.35;0.88;;;;;;;;;;5051100;28;20056;-81
2023/04/26 04:07:35;;;;;;;2.50;1.52;;;;;;;;;;5055826;28;20082;-81
2023/04/26 04:10:00;;;;;;;3.03;1.50;;;;;;;;;;5059010;28;20040;-81
2023/04/26 04:12:27;;;;;;;39.22;17.05;;;;;;;;;;5061452;28;20036;-81
2023/04/26 04:14:53;;;;;;;4.43;2.65;;;;;;;;;;5065566;28;20032;-81
2023/04/26 04:17:18;;;;;;;3.30;2.10;;;;;;;;;;5068900;28;20422;-82
2023/04/26 04:19:44;;;;;;;8.93;4.10;;;;;;;;;;5063979;28;20491;-81
2023/04/26 04:22:10;;;;;;;2.30;1.40;;;;;;;;;;5049056;28;20410;-81
2023/04/26 04:24:36;;;;;;;4.43;2.80;;;;;;;;;;5052641;28;20111;-81
2023/04/26 04:27:02;;;;;;;3.03;2.10;;;;;;;;;;5060831;28;20033;-81
2023/04/26 04:29:29;;;;;;;3.53;1.98;;;;;;;;;;5062787;28;20033;-81
2023/04/26 04:31:55;;;;;;;1.80;1.42;;;;;;;;;;5064882;28;20033;-81
2023/04/26 04:34:22;;;;;;;4.05;1.80;;;;;;;;;;5067597;28;20040;-82
2023/04/26 04:36:49;;;;;;;4.50;1.58;;;;;;;;;;5060509;28;20060;-81
2023/04/26 04:39:16;;;;;;;2.90;1.77;;;;;;;;;;5053832;28;20043;-80
2023/04/26 04:41:46;;;;;;;2.08;1.70;;;;;;;;;;5058415;28;20490;-81
2023/04/26 04:44:17;;;;;;;2.03;1.45;;;;;;;;;;5058604;28;20029;-81
2023/04/26 04:46:43;;;;;;;1.73;1.40;;;;;;;;;;5062919;28;20375;-81
2023/04/26 04:49:14;;;;;;;1.70;1.38;;;;;;;;;;5065715;28;20397;-81
2023/04/26 04:51:39;;;;;;;1.60;1.30;;;;;;;;;;5068236;28;20037;-81
2023/04/26 04:54:14;;;;;;;1.58;1.30;;;;;;;;;;5052909;28;20033;-82
2023/04/26 04:56:39;;;;;;;3.65;2.05;;;;;;;;;;5037718;28;20056;-82
2023/04/26 04:59:06;;;;;;;2.92;1.90;;;;;;;;;;5056051;28;20037;-82
2023/04/26 05:01:32;;;;;;;3.72;1.95;;;;;;;;;;5040011;28;20072;-81
2023/04/26 05:04:00;;;;;;;2.63;1.90;;;;;;;;;;5042684;28;20029;-82
2023/04/26 05:06:27;;;;;;;7.00;3.58;;;;;;;;;;5030288;28;20041;-81
2023/04/26 05:08:53;;;;;;;5.45;3.30;;;;;;;;;;5050528;28;20186;-81
2023/04/26 05:11:18;;;;;;;6.30;3.25;;;;;;;;;;5052367;28;20037;-82
2023/04/26 05:13:45;;;;;;;3.30;2.20;;;;;;;;;;5053033;28;20034;-82
2023/04/26 05:16:11;;;;;;;3.55;2.30;;;;;;;;;;5041202;28;20170;-82
2023/04/26 05:18:37;;;;;;;4.10;2.30;;;;;;;;;;5060501;28;20051;-82
2023/04/26 05:21:03;;;;;;;3.70;2.22;;;;;;;;;;5063778;28;20028;-82
2023/04/26 05:23:29;;;;;;;4.70;2.53;;;;;;;;;;5066333;28;20501;-81
2023/04/26 05:25:54;;;;;;;4.65;2.40;;;;;;;;;;5059027;28;20049;-81
2023/04/26 05:28:38;;;;;;;3.63;2.30;;;;;;;;;;5054211;28;20051;-81
2023/04/26 05:31:26;;;;;;;3.38;2.20;;;;;;;;;;5057857;28;20056;-81
2023/04/26 05:34:25;;;;;;;3.63;2.13;;;;;;;;;;5021655;28;20052;-82
2023/04/26 05:36:55;;;;;;;3.78;2.60;;;;;;;;;;5066863;28;20036;-82
2023/04/26 05:39:20;;;;;;;5.43;2.90;;;;;;;;;;5069434;28;20032;-81
2023/04/26 05:41:46;;;;;;;5.35;3.35;;;;;;;;;;5065911;28;20026;-81
2023/04/26 05:44:15;;;;;;;9.48;4.60;;;;;;;;;;5056951;28;20025;-85
2023/04/26 05:46:41;;;;;;;10.70;4.25;;;;;;;;;;5058339;28;20032;-81
2023/04/26 05:49:08;;;;;;;8.95;4.70;;;;;;;;;;5061161;28;20031;-82
2023/04/26 05:51:34;;;;;;;7.97;3.92;;;;;;;;;;5064883;28;20120;-81
2023/04/26 05:53:59;;;;;;;5.63;3.65;;;;;;;;;;5066303;28;20060;-81
2023/04/26 05:56:26;;;;;;;5.50;3.40;;;;;;;;;;5069714;28;20050;-81
2023/04/26 05:58:52;;;;;;;7.93;3.95;;;;;;;;;;5062332;28;20033;-81
2023/04/26 06:01:18;;;;;;;7.85;3.88;;;;;;;;;;5056144;28;20047;-82
2023/04/26 06:03:45;;;;;;;7.57;3.75;;;;;;;;;;5060110;28;20036;-81
2023/04/26 06:06:11;;;;;;;6.57;3.78;;;;;;;;;;5060903;28;20091;-80
2023/04/26 06:08:38;;;;;;;7.07;3.75;;;;;;;;;;5062822;28;20090;-80
2023/04/26 06:11:04;;;;;;;6.88;3.75;;;;;;;;;;5067841;28;20036;-81
2023/04/26 06:13:30;;;;;;;5.25;3.42;;;;;;;;;;5072393;28;20036;-80
2023/04/26 06:15:59;;;;;;;7.13;4.22;;;;;;;;;;5059054;28;20037;-80
2023/04/26 06:18:25;;;;;;;7.63;4.55;;;;;;;;;;5056886;28;20495;-80
2023/04/26 06:20:50;;;;;;;6.45;4.22;;;;;;;;;;5059911;28;20041;-80
2023/04/26 06:23:16;;;;;;;8.02;4.72;;;;;;;;;;5063310;28;20056;-80
2023/04/26 06:25:43;;;;;;;7.25;4.47;;;;;;;;;;5067093;28;20040;-81
2023/04/26 06:28:09;;;;;;;6.80;3.97;;;;;;;;;;5069720;28;20494;-80
2023/04/26 06:30:35;;;;;;;5.55;4.13;;;;;;;;;;5072810;28;20158;-80
2023/04/26 06:33:01;;;;;;;7.18;4.57;;;;;;;;;;5048198;28;20534;-81
2023/04/26 06:35:29;;;;;;;7.20;4.18;;;;;;;;;;5056761;28;20402;-80
2023/04/26 06:37:54;;;;;;;4.80;3.20;;;;;;;;;;5074185;28;20033;-80
2023/04/26 06:40:20;;;;;;;6.32;3.58;;;;;;;;;;5062118;28;20017;-84
2023/04/26 06:42:47;;;;;;;4.93;3.22;;;;;;;;;;5063622;28;20384;-83
2023/04/26 06:45:15;;;;;;;5.78;3.08;;;;;;;;;;5068076;28;20036;-83
2023/04/26 06:47:43;;;;;;;7.10;3.45;;;;;;;;;;5062487;28;20077;-82
2023/04/26 06:50:09;;;;;;;5.40;3.33;;;;;;;;;;5053072;28;20036;-84
2023/04/26 06:52:35;;;;;;;6.50;3.42;;;;;;;;;;5057969;28;20086;-84
2023/04/26 06:55:02;;;;;;;5.35;3.17;;;;;;;;;;5064199;28;20036;-83
2023/04/26 06:57:27;;;;;;;6.13;3.30;;;;;;;;;;5066177;28;20067;-83
2023/04/26 06:59:53;;;;;;;5.78;3.80;;;;;;;;;;5068811;28;20127;-84
2023/04/26 07:02:18;;;;;;;6.53;3.47;;;;;;;;;;5073093;28;20039;-84
2023/04/26 07:04:44;;;;;;;7.25;3.50;;;;;;;;;;5064791;28;20052;-85
2023/04/26 07:07:10;;;;;;;7.45;4.07;;;;;;;;;;5075328;28;20059;-86
2023/04/26 07:09:35;;;;;;;6.78;4.03;;;;;;;;;;5058984;28;20094;-86
2023/04/26 07:12:01;;;;;;;6.85;4.03;;;;;;;;;;5064002;28;20116;-86
2023/04/26 07:14:27;;;;;;;9.00;4.05;;;;;;;;;;5067531;28;20410;-86
2023/04/26 07:16:52;;;;;;;7.70;4.43;;;;;;;;;;5068791;28;20044;-82
2023/04/26 07:19:18;;;;;;;7.10;4.60;;;;;;;;;;5069843;28;20035;-83
2023/04/26 07:21:44;;;;;;;8.13;4.30;;;;;;;;;;5055187;28;20100;-84
2023/04/26 07:24:09;;;;;;;7.53;4.63;;;;;;;;;;5058048;28;20482;-84
2023/04/26 07:26:38;;;;;;;8.07;4.38;;;;;;;;;;5059402;28;20036;-83
2023/04/26 07:29:03;;;;;;;7.70;4.38;;;;;;;;;;5063706;28;20131;-83
2023/04/26 07:31:30;;;;;;;5.70;3.97;;;;;;;;;;5061573;28;20123;-83
2023/04/26 07:33:56;;;;;;;8.45;4.53;;;;;;;;;;5066878;28;20401;-82
2023/04/26 07:36:22;;;;;;;7.75;4.32;;;;;;;;;;5053193;28;20654;-84
2023/04/26 07:38:47;;;;;;;7.20;4.45;;;;;;;;;;5051427;28;20057;-82
2023/04/26 07:41:15;;;;;;;6.25;4.35;;;;;;;;;;5056091;28;20044;-83
2023/04/26 07:43:40;;;;;;;9.40;4.28;;;;;;;;;;5057936;28;20468;-84
2023/04/26 07:46:06;;;;;;;7.65;4.35;;;;;;;;;;5063635;28;20660;-84
2023/04/26 07:48:31;;;;;;;8.93;4.40;;;;;;;;;;5065901;28;20474;-84
2023/04/26 07:51:06;;;;;;;9.05;4.97;;;;;;;;;;5069244;28;20072;-84
2023/04/26 07:53:31;;;;;;;9.48;4.88;;;;;;;;;;5063217;28;20479;-83
2023/04/26 07:55:57;;;;;;;7.10;4.13;;;;;;;;;;5055727;28;20048;-84
2023/04/26 07:58:22;;;;;;;13.82;4.78;;;;;;;;;;5058203;28;20044;-84
2023/04/26 08:00:48;;;;;;;7.07;4.60;;;;;;;;;;5060000;28;20103;-85
2023/04/26 08:03:16;;;;;;;8.98;4.18;;;;;;;;;;5063315;28;20086;-84
2023/04/26 08:05:42;;;;;;;11.60;4.50;;;;;;;;;;5065739;28;20037;-83
2023/04/26 08:08:07;;;;;;;8.15;4.05;;;;;;;;;;5068104;28;20055;-83
2023/04/26 08:10:33;;;;;;;7.22;4.03;;;;;;;;;;5058872;28;20037;-83
2023/04/26 08:13:02;;;;;;;7.45;4.07;;;;;;;;;;5053385;28;20036;-84
2023/04/26 08:15:28;;;;;;;7.85;3.97;;;;;;;;;;5055662;28;20033;-84
2023/04/26 08:17:53;;;;;;;7.80;4.00;;;;;;;;;;5060253;28;20029;-83
2023/04/26 08:20:19;;;;;;;9.85;3.90;;;;;;;;;;5062785;28;20387;-83
2023/04/26 08:22:45;;;;;;;9.77;3.92;;;;;;;;;;5065177;28;20036;-83
2023/04/26 08:25:11;;;;;;;7.95;3.97;;;;;;;;;;5067864;28;20036;-83
2023/04/26 08:27:36;;;;;;;6.78;3.40;;;;;;;;;;5052698;28;20040;-83
2023/04/26 08:30:03;;;;;;;8.38;3.95;;;;;;;;;;5053208;28;20036;-84
2023/04/26 08:32:29;;;;;;;7.13;3.60;;;;;;;;;;5058708;28;20090;-84
2023/04/26 08:34:55;;;;;;;6.07;3.70;;;;;;;;;;5060643;28;20040;-83
2023/04/26 08:37:20;;;;;;;7.38;3.75;;;;;;;;;;5060491;28;20395;-84
2023/04/26 08:39:45;;;;;;;7.78;4.10;;;;;;;;;;5048555;28;20040;-83
2023/04/26 08:42:16;;;;;;;10.13;3.85;;;;;;;;;;5066084;28;20517;-84
2023/04/26 08:44:42;;;;;;;11.38;4.05;;;;;;;;;;5050592;28;20033;-84
2023/04/26 08:47:30;;;;;;;10.60;4.10;;;;;;;;;;5052954;28;20037;-83
2023/04/26 08:50:02;;;;;;;8.80;4.05;;;;;;;;;;5052927;28;20129;-84
2023/04/26 08:52:29;;;;;;;6.63;3.95;;;;;;;;;;5061611;28;20039;-84
2023/04/26 08:54:56;;;;;;;8.05;4.00;;;;;;;;;;5063369;28;20144;-84
2023/04/26 08:57:23;;;;;;;5.88;3.60;;;;;;;;;;5049590;28;20085;-84
2023/04/26 08:59:52;;;;;;;5.68;3.42;;;;;;;;;;5058336;28;20055;-83
2023/04/26 09:02:20;;;;;;;5.53;3.42;;;;;;;;;;5053820;28;20481;-84
2023/04/26 09:04:47;;;;;;;11.40;3.60;;;;;;;;;;5055331;28;20035;-84
2023/04/26 09:07:20;;;;;;;5.38;3.35;;;;;;;;;;5074057;28;20034;-84
2023/04/26 09:09:51;;;;;;;5.65;3.60;;;;;;;;;;5061802;28;20024;-84
2023/04/26 09:12:19;;;;;;;6.35;3.30;;;;;;;;;;5087010;28;20048;-84
2023/04/26 09:14:46;;;;;;;6.05;3.95;;;;;;;;;;5070845;28;20433;-84
2023/04/26 09:17:32;;;;;;;9.27;3.00;;;;;;;;;;5052581;28;20115;-84
2023/04/26 09:20:00;;;;;;;5.57;2.70;;;;;;;;;;5058471;28;20563;-84
2023/04/26 09:22:34;;;;;;;6.00;2.80;;;;;;;;;;5061844;28;20552;-84
2023/04/26 09:25:02;;;;;;;7.10;2.88;;;;;;;;;;5061968;28;20092;-84
2023/04/26 09:27:37;;;;;;;5.13;2.78;;;;;;;;;;5050060;28;20036;-84
2023/04/26 09:30:09;;;;;;;3.78;2.40;;;;;;;;;;5065509;28;20082;-84
2023/04/26 09:32:55;;;;;;;4.63;2.60;;;;;;;;;;5062764;28;20032;-84
2023/04/26 09:35:28;;;;;;;3.67;2.00;;;;;;;;;;5052731;28;20048;-85
2023/04/26 09:37:58;;;;;;;4.33;2.63;;;;;;;;;;5056422;28;20040;-85
2023/04/26 09:40:25;;;;;;;3.38;1.90;;;;;;;;;;5056727;28;20024;-85
2023/04/26 09:43:20;;;;;;;2.97;2.00;;;;;;;;;;5065566;28;20037;-85
2023/04/26 09:45:50;;;;;;;4.05;2.30;;;;;;;;;;5082866;28;20055;-83
2023/04/26 09:48:22;;;;;;;3.70;2.10;;;;;;;;;;5055055;28;20076;-85
2023/04/26 09:50:52;;;;;;;4.47;2.40;;;;;;;;;;5035992;28;20072;-85
2023/04/26 09:53:30;;;;;;;5.18;2.45;;;;;;;;;;5055709;28;20127;-84
2023/04/26 09:56:04;;;;;;;6.50;3.00;;;;;;;;;;5062902;28;20054;-84
2023/04/26 09:58:30;;;;;;;5.07;2.85;;;;;;;;;;5063324;28;20482;-84
2023/04/26 10:00:56;;;;;;;5.90;3.20;;;;;;;;;;5067687;28;20056;-84
2023/04/26 10:03:22;;;;;;;6.30;3.55;;;;;;;;;;5070430;28;20039;-85
2023/04/26 10:05:48;;;;;;;4.72;3.35;;;;;;;;;;5053490;28;20542;-85
2023/04/26 10:08:13;;;;;;;6.88;3.00;;;;;;;;;;5058345;28;20033;-85
2023/04/26 10:10:40;;;;;;;5.65;2.60;;;;;;;;;;5062334;28;20025;-84
2023/04/26 10:13:05;;;;;;;6.30;2.78;;;;;;;;;;5067944;28;20033;-84
2023/04/26 10:15:31;;;;;;;6.93;2.80;;;;;;;;;;5069727;28;20038;-84
2023/04/26 10:17:57;;;;;;;6.13;2.45;;;;;;;;;;5059548;28;20033;-85
2023/04/26 10:20:25;;;;;;;5.68;2.83;;;;;;;;;;5060574;28;20036;-86
2023/04/26 10:23:00;;;;;;;4.72;2.28;;;;;;;;;;5039887;28;20531;-88
2023/04/26 10:25:36;;;;;;;6.80;2.50;;;;;;;;;;5066611;28;20124;-85
2023/04/26 10:28:02;;;;;;;3.70;2.50;;;;;;;;;;5070350;28;20055;-85
2023/04/26 10:30:28;;;;;;;5.03;2.80;;;;;;;;;;5075310;28;20497;-85
2023/04/26 10:32:56;;;;;;;6.32;2.60;;;;;;;;;;5065095;28;20037;-85
2023/04/26 10:35:29;;;;;;;4.40;2.30;;;;;;;;;;5059291;28;20056;-85
2023/04/26 10:37:58;;;;;;;6.65;2.38;;;;;;;;;;5061421;28;20044;-85
2023/04/26 10:40:40;;;;;;;4.88;2.47;;;;;;;;;;5073036;28;20040;-85
2023/04/26 10:43:15;;;;;;;6.53;2.78;;;;;;;;;;5068394;28;20365;-84
2023/04/26 10:45:45;;;;;;;4.22;2.30;;;;;;;;;;5053231;28;20490;-85
2023/04/26 10:48:26;;;;;;;4.97;1.95;;;;;;;;;;5057258;28;20033;-83
2023/04/26 10:51:00;;;;;;;2.33;1.63;;;;;;;;;;5075861;28;20036;-85
2023/04/26 10:53:26;;;;;;;3.72;2.10;;;;;;;;;;5057915;28;20121;-85
2023/04/26 10:55:53;;;;;;;3.63;1.92;;;;;;;;;;5064694;28;20040;-85
2023/04/26 10:58:25;;;;;;;4.18;2.00;;;;;;;;;;5066795;28;20489;-85
2023/04/26 11:01:16;;;;;;;4.22;1.92;;;;;;;;;;5070890;28;20044;-85
2023/04/26 11:04:03;;;;;;;3.97;1.90;;;;;;;;;;5073678;28;20047;-84
2023/04/26 11:06:48;;;;;;;5.22;1.92;;;;;;;;;;5058467;28;20573;-85
2023/04/26 11:09:49;;;;;;;3.13;1.80;;;;;;;;;;5062138;28;20120;-84
2023/04/26 11:12:15;;;;;;;5.00;1.70;;;;;;;;;;5039689;28;20045;-85
2023/04/26 11:14:41;;;;;;;3.50;1.88;;;;;;;;;;5066957;28;20039;-84
2023/04/26 11:17:08;;;;;;;5.30;1.70;;;;;;;;;;5067708;28;20059;-84
2023/04/26 11:19:34;;;;;;;3.88;1.70;;;;;;;;;;5076166;28;20048;-83
2023/04/26 11:22:01;;;;;;;3.03;2.00;;;;;;;;;;5067714;28;20029;-83
2023/04/26 11:24:28;;;;;;;2.92;1.85;;;;;;;;;;5058192;28;20029;-83
2023/04/26 11:26:54;;;;;;;2.53;1.90;;;;;;;;;;5064272;28;20040;-85
2023/04/26 11:29:20;;;;;;;4.40;2.10;;;;;;;;;;5066939;28;20066;-84
2023/04/26 11:31:53;;;;;;;4.65;2.20;;;;;;;;;;5068973;28;20035;-85
2023/04/26 11:34:21;;;;;;;6.63;2.00;;;;;;;;;;5055168;28;20159;-85
2023/04/26 11:36:47;;;;;;;4.85;2.00;;;;;;;;;;5075688;28;20047;-85
2023/04/26 11:39:13;;;;;;;3.90;2.00;;;;;;;;;;5057647;28;20405;-85
2023/04/26 11:41:39;;;;;;;3.72;1.83;;;;;;;;;;5059618;28;20025;-85
2023/04/26 11:44:04;;;;;;;4.43;2.00;;;;;;;;;;5063543;28;20040;-85
2023/04/26 11:46:30;;;;;;;2.78;1.90;;;;;;;;;;5066132;28;20037;-85
2023/04/26 11:48:56;;;;;;;5.10;1.80;;;;;;;;;;5068033;28;20032;-85
2023/04/26 11:51:22;;;;;;;4.32;2.08;;;;;;;;;;5072590;28;20100;-84
2023/04/26 11:53:50;;;;;;;5.65;2.10;;;;;;;;;;5071195;28;20033;-84
2023/04/26 11:56:18;;;;;;;4.88;1.90;;;;;;;;;;5058680;28;20091;-83
2023/04/26 11:58:45;;;;;;;3.92;2.00;;;;;;;;;;5062006;28;20044;-82
2023/04/26 12:01:10;;;;;;;3.72;1.88;;;;;;;;;;5062765;28;20048;-82
2023/04/26 12:03:36;;;;;;;3.70;1.80;;;;;;;;;;5066121;28;20036;-82
2023/04/26 12:06:05;;;;;;;2.88;1.88;;;;;;;;;;5070632;28;20086;-82
2023/04/26 12:08:32;;;;;;;6.20;1.90;;;;;;;;;;5088573;28;20071;-83
2023/04/26 12:11:01;;;;;;;3.58;1.98;;;;;;;;;;5063990;28;20037;-82
2023/04/26 12:13:31;;;;;;;2.85;1.50;;;;;;;;;;5059102;28;20036;-82
2023/04/26 12:15:56;;;;;;;2.47;1.40;;;;;;;;;;5059400;28;20463;-82
2023/04/26 12:18:29;;;;;;;4.32;1.85;;;;;;;;;;5065286;28;20044;-82
2023/04/26 12:20:57;;;;;;;2.55;1.70;;;;;;;;;;5081139;28;20047;-82
2023/04/26 12:23:23;;;;;;;2.25;1.60;;;;;;;;;;5070462;28;20033;-82
2023/04/26 12:25:59;;;;;;;7.55;1.77;;;;;;;;;;5069937;28;20043;-82
2023/04/26 12:28:24;;;;;;;4.13;1.92;;;;;;;;;;5026381;28;20101;-82
2023/04/26 12:30:50;;;;;;;3.58;2.33;;;;;;;;;;5036658;28;20510;-81
2023/04/26 12:33:18;;;;;;;6.40;2.05;;;;;;;;;;5039621;28;20479;-81
2023/04/26 12:35:45;;;;;;;2.83;1.58;;;;;;;;;;5060399;28;20044;-81
2023/04/26 12:38:11;;;;;;;2.30;1.70;;;;;;;;;;5063934;28;20036;-82
2023/04/26 12:40:36;;;;;;;6.28;2.50;;;;;;;;;;5068428;28;20104;-81
2023/04/26 12:43:02;;;;;;;4.05;2.30;;;;;;;;;;5070993;28;20452;-84
2023/04/26 12:45:27;;;;;;;5.45;2.50;;;;;;;;;;5051804;28;20098;-84
2023/04/26 12:47:53;;;;;;;5.03;2.60;;;;;;;;;;5051228;28;20063;-83
2023/04/26 12:50:20;;;;;;;4.93;2.58;;;;;;;;;;5058993;28;20135;-84
2023/04/26 12:52:46;;;;;;;5.72;3.50;;;;;;;;;;5060992;28;20029;-83
2023/04/26 12:55:13;;;;;;;9.98;5.53;;;;;;;;;;5066000;28;20116;-83
2023/04/26 12:57:41;;;;;;;6.10;2.53;;;;;;;;;;5069828;28;20146;-82
2023/04/26 13:00:10;;;;;;;5.65;2.72;;;;;;;;;;5061143;28;20051;-84
2023/04/26 13:02:36;;;;;;;5.60;2.50;;;;;;;;;;5067821;28;20467;-84
2023/04/26 13:05:04;;;;;;;5.32;2.95;;;;;;;;;;5057936;28;20119;-84
2023/04/26 13:07:31;;;;;;;4.80;2.78;;;;;;;;;;5058784;28;20036;-84
2023/04/26 13:09:57;;;;;;;6.10;2.63;;;;;;;;;;5062387;28;20724;-84
2023/04/26 13:12:23;;;;;;;4.45;2.55;;;;;;;;;;5066002;28;20482;-83
2023/04/26 13:14:48;;;;;;;4.20;2.40;;;;;;;;;;5071869;28;20036;-82
2023/04/26 13:17:13;;;;;;;5.05;2.30;;;;;;;;;;5064013;28;20036;-83
2023/04/26 13:19:39;;;;;;;3.42;2.40;;;;;;;;;;5054783;28;20041;-82
2023/04/26 13:22:07;;;;;;;16.90;9.13;;;;;;;;;;5059520;28;20033;-83
2023/04/26 13:24:34;;;;;;;3.03;2.33;;;;;;;;;;5060317;28;20104;-82
2023/04/26 13:27:00;;;;;;;3.72;2.35;;;;;;;;;;5066968;28;20032;-84
2023/04/26 13:29:26;;;;;;;3.67;2.10;;;;;;;;;;5068458;28;20062;-83
2023/04/26 13:31:52;;;;;;;4.30;2.22;;;;;;;;;;5054739;28;20104;-84
2023/04/26 13:34:17;;;;;;;5.15;2.20;;;;;;;;;;5057825;28;20439;-83
2023/04/26 13:36:43;;;;;;;3.10;2.10;;;;;;;;;;5062659;28;20036;-82
2023/04/26 13:39:08;;;;;;;5.05;2.17;;;;;;;;;;5063770;28;20458;-82
2023/04/26 13:41:35;;;;;;;4.82;2.15;;;;;;;;;;5073032;28;20031;-82
2023/04/26 13:44:02;;;;;;;4.68;2.13;;;;;;;;;;5052130;28;20104;-83
2023/04/26 13:46:28;;;;;;;6.82;2.30;;;;;;;;;;5054106;28;20043;-84
2023/04/26 13:48:54;;;;;;;4.50;2.30;;;;;;;;;;5059816;28;20107;-85
2023/04/26 13:51:20;;;;;;;4.78;2.55;;;;;;;;;;5062420;28;20035;-82
2023/04/26 13:53:46;;;;;;;5.80;2.35;;;;;;;;;;5067317;28;20040;-83
2023/04/26 13:56:11;;;;;;;4.85;2.53;;;;;;;;;;5058032;28;20045;-83
2023/04/26 13:58:39;;;;;;;4.07;2.35;;;;;;;;;;5073757;28;20052;-83
2023/04/26 14:01:04;;;;;;;9.00;3.25;;;;;;;;;;5061496;28;20099;-83
2023/04/26 14:03:30;;;;;;;8.63;3.22;;;;;;;;;;5062775;28;20144;-84
2023/04/26 14:05:55;;;;;;;5.43;2.60;;;;;;;;;;5069481;28;20032;-83
2023/04/26 14:08:21;;;;;;;6.28;2.40;;;;;;;;;;5065707;28;20025;-84
2023/04/26 14:10:47;;;;;;;4.57;2.40;;;;;;;;;;5057864;28;20084;-83
2023/04/26 14:13:15;;;;;;;4.63;2.50;;;;;;;;;;5062016;28;20082;-83
2023/04/26 14:15:41;;;;;;;4.95;2.33;;;;;;;;;;5062208;28;20040;-83
2023/04/26 14:18:07;;;;;;;3.75;2.30;;;;;;;;;;5051889;28;20082;-83
2023/04/26 14:20:33;;;;;;;4.68;2.58;;;;;;;;;;5070888;28;20029;-84
2023/04/26 14:22:58;;;;;;;5.07;2.30;;;;;;;;;;5056613;28;20043;-84
2023/04/26 14:25:25;;;;;;;3.42;2.30;;;;;;;;;;5061157;28;20438;-85
2023/04/26 14:27:52;;;;;;;4.43;2.22;;;;;;;;;;5079301;28;20036;-84
2023/04/26 14:30:17;;;;;;;3.53;2.35;;;;;;;;;;5066250;28;20147;-83
2023/04/26 14:32:44;;;;;;;6.78;2.58;;;;;;;;;;5071157;28;20115;-83
2023/04/26 14:35:10;;;;;;;3.95;2.08;;;;;;;;;;5056509;28;20174;-83
2023/04/26 14:37:35;;;;;;;5.47;2.28;;;;;;;;;;5058536;28;20491;-83
2023/04/26 14:40:01;;;;;;;5.03;2.00;;;;;;;;;;5061199;28;20033;-84
2023/04/26 14:42:27;;;;;;;5.10;2.25;;;;;;;;;;5068155;28;20347;-84
2023/04/26 14:44:52;;;;;;;4.78;2.22;;;;;;;;;;5070675;28;20028;-83